sensor_id;sensor_type;location;lat;lon;timestamp;pressure;altitude;pressure_sealevel;temperature;humidity
80504;BME280;69825;51.190;6.808;2023-09-08T09:33:47;101504.13;;;24.55;55.26
80504;BME280;69825;51.190;6.808;2023-09-08T09:36:20;101510.75;;;24.67;54.98
80504;BME280;69825;51.190;6.808;2023-09-08T16:52:41;101342.38;;;26.29;55.80
80504;BME280;69825;51.190;6.808;2023-09-08T16:55:07;101349.84;;;26.60;54.72
80504;BME280;69825;51.190;6.808;2023-09-08T16:57:39;101341.00;;;27.01;53.70
80504;BME280;69825;51.190;6.808;2023-09-08T17:00:06;101346.13;;;27.40;52.54
80504;BME280;69825;51.190;6.808;2023-09-08T17:02:33;101341.16;;;27.67;51.57
80504;BME280;69825;51.190;6.808;2023-09-08T17:04:58;101341.66;;;27.94;50.82
80504;BME280;69825;51.190;6.808;2023-09-08T17:07:23;101341.59;;;28.12;50.17
80504;BME280;69825;51.190;6.808;2023-09-08T17:09:49;101335.66;;;28.27;49.69
80504;BME280;69825;51.190;6.808;2023-09-08T17:12:14;101341.00;;;28.40;49.41
80504;BME280;69825;51.190;6.808;2023-09-08T17:14:39;101346.00;;;28.50;49.07
80504;BME280;69825;51.190;6.808;2023-09-08T17:17:05;101347.59;;;28.57;48.76
80504;BME280;69825;51.190;6.808;2023-09-08T17:19:30;101343.25;;;28.61;48.65
80504;BME280;69825;51.190;6.808;2023-09-08T17:21:55;101353.41;;;28.67;48.35
80504;BME280;69825;51.190;6.808;2023-09-08T17:24:21;101350.78;;;28.73;47.92
80504;BME280;69825;51.190;6.808;2023-09-08T17:26:46;101354.78;;;28.77;48.39
80504;BME280;69825;51.190;6.808;2023-09-08T17:29:11;101350.69;;;28.79;47.93
80504;BME280;69825;51.190;6.808;2023-09-08T17:31:37;101349.34;;;28.82;47.66
80504;BME280;69825;51.190;6.808;2023-09-08T17:34:06;101338.97;;;28.77;47.76
80504;BME280;69825;51.190;6.808;2023-09-08T17:36:32;101343.31;;;28.85;47.84
80504;BME280;69825;51.190;6.808;2023-09-08T17:38:58;101342.72;;;28.83;47.83
80504;BME280;69825;51.190;6.808;2023-09-08T17:41:23;101354.56;;;28.90;47.70
80504;BME280;69825;51.190;6.808;2023-09-08T17:43:48;101353.47;;;28.91;47.58
80504;BME280;69825;51.190;6.808;2023-09-08T17:46:14;101351.31;;;28.93;47.35
80504;BME280;69825;51.190;6.808;2023-09-08T17:48:39;101353.81;;;28.94;47.23
80504;BME280;69825;51.190;6.808;2023-09-08T17:51:05;101356.38;;;28.96;47.29
80504;BME280;69825;51.190;6.808;2023-09-08T17:53:30;101344.53;;;28.89;47.16
80504;BME280;69825;51.190;6.808;2023-09-08T17:56:00;101367.03;;;28.99;47.31
80504;BME280;69825;51.190;6.808;2023-09-08T17:58:26;101364.25;;;28.99;47.01
80504;BME280;69825;51.190;6.808;2023-09-08T18:00:51;101360.59;;;28.98;47.23
80504;BME280;69825;51.190;6.808;2023-09-08T18:03:16;101365.94;;;29.00;47.22
80504;BME280;69825;51.190;6.808;2023-09-08T18:05:42;101363.75;;;29.02;46.89
80504;BME280;69825;51.190;6.808;2023-09-08T18:08:08;101355.06;;;28.98;47.18
80504;BME280;69825;51.190;6.808;2023-09-08T18:10:34;101360.38;;;29.00;47.27
80504;BME280;69825;51.190;6.808;2023-09-08T18:12:59;101357.09;;;29.03;46.91
80504;BME280;69825;51.190;6.808;2023-09-08T18:15:24;101354.66;;;28.95;46.89
80504;BME280;69825;51.190;6.808;2023-09-08T18:17:50;101358.31;;;28.95;46.72
80504;BME280;69825;51.190;6.808;2023-09-08T18:20:15;101367.38;;;29.02;46.69
80504;BME280;69825;51.190;6.808;2023-09-08T18:22:40;101361.06;;;28.95;46.82
80504;BME280;69825;51.190;6.808;2023-09-08T18:25:06;101372.94;;;29.02;46.92
80504;BME280;69825;51.190;6.808;2023-09-08T18:27:31;101365.94;;;29.00;46.78
80504;BME280;69825;51.190;6.808;2023-09-08T18:29:57;101345.88;;;28.86;46.96
80504;BME280;69825;51.190;6.808;2023-09-08T18:32:22;101377.41;;;29.03;46.79
80504;BME280;69825;51.190;6.808;2023-09-08T18:34:47;101377.16;;;29.05;46.81
80504;BME280;69825;51.190;6.808;2023-09-08T18:37:13;101377.16;;;29.05;46.98
80504;BME280;69825;51.190;6.808;2023-09-08T18:39:38;101368.72;;;29.00;47.45
80504;BME280;69825;51.190;6.808;2023-09-08T18:42:03;101377.41;;;29.03;47.08
80504;BME280;69825;51.190;6.808;2023-09-08T18:44:29;101386.94;;;29.07;47.00
80504;BME280;69825;51.190;6.808;2023-09-08T18:46:54;101385.00;;;29.08;47.09
80504;BME280;69825;51.190;6.808;2023-09-08T18:49:20;101368.72;;;29.00;47.10
80504;BME280;69825;51.190;6.808;2023-09-08T18:51:47;101378.38;;;29.09;46.95
80504;BME280;69825;51.190;6.808;2023-09-08T18:54:13;101382.22;;;29.08;47.00
80504;BME280;69825;51.190;6.808;2023-09-08T18:56:38;101385.00;;;29.08;47.11
80504;BME280;69825;51.190;6.808;2023-09-08T18:59:04;101386.69;;;29.09;47.08
80504;BME280;69825;51.190;6.808;2023-09-08T19:01:29;101391.19;;;29.10;46.83
80504;BME280;69825;51.190;6.808;2023-09-08T19:03:54;101378.88;;;29.06;47.15
80504;BME280;69825;51.190;6.808;2023-09-08T19:06:20;101387.31;;;29.11;47.15
80504;BME280;69825;51.190;6.808;2023-09-08T19:08:45;101400.13;;;29.12;47.15
80504;BME280;69825;51.190;6.808;2023-09-08T19:11:10;101372.56;;;28.99;47.25
80504;BME280;69825;51.190;6.808;2023-09-08T19:13:36;101393.72;;;29.12;46.78
80504;BME280;69825;51.190;6.808;2023-09-08T19:16:01;101394.81;;;29.11;46.71
80504;BME280;69825;51.190;6.808;2023-09-08T19:18:27;101400.13;;;29.12;47.19
80504;BME280;69825;51.190;6.808;2023-09-08T19:20:52;101384.88;;;29.03;47.07
80504;BME280;69825;51.190;6.808;2023-09-08T19:23:18;101374.28;;;29.00;47.02
80504;BME280;69825;51.190;6.808;2023-09-08T19:25:43;101396.28;;;29.13;47.19
80504;BME280;69825;51.190;6.808;2023-09-08T19:28:09;101393.50;;;29.13;47.36
80504;BME280;69825;51.190;6.808;2023-09-08T19:30:36;101396.28;;;29.13;46.91
80504;BME280;69825;51.190;6.808;2023-09-08T19:33:02;101397.94;;;29.14;47.18
80504;BME280;69825;51.190;6.808;2023-09-08T19:35:27;101397.94;;;29.14;47.08
80504;BME280;69825;51.190;6.808;2023-09-08T19:37:53;101388.50;;;29.15;46.73
80504;BME280;69825;51.190;6.808;2023-09-08T19:40:18;101394.06;;;29.15;46.83
80504;BME280;69825;51.190;6.808;2023-09-08T19:42:44;101403.50;;;29.14;47.27
80504;BME280;69825;51.190;6.808;2023-09-08T19:45:09;101403.50;;;29.14;47.04
80504;BME280;69825;51.190;6.808;2023-09-08T19:47:35;101401.84;;;29.13;47.29
80504;BME280;69825;51.190;6.808;2023-09-08T19:50:00;101399.06;;;29.13;47.34
80504;BME280;69825;51.190;6.808;2023-09-08T19:52:26;101395.44;;;29.13;47.05
80504;BME280;69825;51.190;6.808;2023-09-08T19:54:51;101397.34;;;29.12;46.99
80504;BME280;69825;51.190;6.808;2023-09-08T19:57:17;101389.47;;;29.09;47.26
80504;BME280;69825;51.190;6.808;2023-09-08T19:59:42;101398.44;;;29.11;46.95
80504;BME280;69825;51.190;6.808;2023-09-08T20:02:09;101391.19;;;29.10;47.47
80504;BME280;69825;51.190;6.808;2023-09-08T20:04:34;101401.44;;;29.10;46.98
80504;BME280;69825;51.190;6.808;2023-09-08T20:07:00;101400.59;;;29.09;47.23
80504;BME280;69825;51.190;6.808;2023-09-08T20:09:25;101398.91;;;29.08;47.43
80504;BME280;69825;51.190;6.808;2023-09-08T20:11:51;101393.34;;;29.08;47.22
80504;BME280;69825;51.190;6.808;2023-09-08T20:14:17;101398.91;;;29.08;47.33
80504;BME280;69825;51.190;6.808;2023-09-08T20:16:43;101398.91;;;29.08;47.24
80504;BME280;69825;51.190;6.808;2023-09-08T20:19:08;101398.31;;;29.06;46.79
80504;BME280;69825;51.190;6.808;2023-09-08T20:21:33;101397.22;;;29.07;47.31
80504;BME280;69825;51.190;6.808;2023-09-08T20:23:59;101398.56;;;29.04;46.60
80504;BME280;69825;51.190;6.808;2023-09-08T20:26:26;101401.09;;;29.06;47.29
80504;BME280;69825;51.190;6.808;2023-09-08T20:28:52;101401.09;;;29.06;47.00
80504;BME280;69825;51.190;6.808;2023-09-08T20:31:17;101407.75;;;29.05;47.32
80504;BME280;69825;51.190;6.808;2023-09-08T20:33:44;101390.09;;;28.99;47.02
80504;BME280;69825;51.190;6.808;2023-09-08T20:36:10;101381.59;;;28.94;47.08
80504;BME280;69825;51.190;6.808;2023-09-08T20:38:35;101406.03;;;29.04;47.37
80504;BME280;69825;51.190;6.808;2023-09-08T20:41:00;101400.47;;;29.04;47.21
80504;BME280;69825;51.190;6.808;2023-09-08T20:43:26;101402.41;;;29.03;47.22
80504;BME280;69825;51.190;6.808;2023-09-08T20:45:55;101404.34;;;29.03;47.21
80504;BME280;69825;51.190;6.808;2023-09-08T20:48:21;101401.56;;;29.03;47.17
80504;BME280;69825;51.190;6.808;2023-09-08T20:50:47;101403.72;;;29.01;47.31
80504;BME280;69825;51.190;6.808;2023-09-08T20:53:13;101405.41;;;29.02;47.23
80504;BME280;69825;51.190;6.808;2023-09-08T20:55:38;101405.41;;;29.02;47.28
80504;BME280;69825;51.190;6.808;2023-09-08T20:58:04;101403.72;;;29.01;47.06
80504;BME280;69825;51.190;6.808;2023-09-08T21:00:29;101393.47;;;29.01;46.66
80504;BME280;69825;51.190;6.808;2023-09-08T21:02:57;101400.94;;;29.01;47.37
80504;BME280;69825;51.190;6.808;2023-09-08T21:05:23;101399.28;;;29.00;47.16
80504;BME280;69825;51.190;6.808;2023-09-08T21:07:48;101401.22;;;28.99;47.47
80504;BME280;69825;51.190;6.808;2023-09-08T21:10:14;101396.50;;;29.00;47.08
80504;BME280;69825;51.190;6.808;2023-09-08T21:12:39;101394.81;;;28.99;47.35
80504;BME280;69825;51.190;6.808;2023-09-08T21:15:05;101386.19;;;28.89;47.09
80504;BME280;69825;51.190;6.808;2023-09-08T21:17:31;101404.22;;;28.98;47.31
80504;BME280;69825;51.190;6.808;2023-09-08T21:19:56;101397.19;;;28.95;47.31
80504;BME280;69825;51.190;6.808;2023-09-08T21:22:24;101398.66;;;28.98;47.30
80504;BME280;69825;51.190;6.808;2023-09-08T21:24:49;101402.53;;;28.97;47.15
80504;BME280;69825;51.190;6.808;2023-09-08T21:27:14;101397.81;;;28.97;46.99
80504;BME280;69825;51.190;6.808;2023-09-08T21:29:40;101396.97;;;28.97;47.29
80504;BME280;69825;51.190;6.808;2023-09-08T21:32:06;101390.78;;;28.95;47.45
80504;BME280;69825;51.190;6.808;2023-09-08T21:34:31;101381.38;;;28.96;47.09
80504;BME280;69825;51.190;6.808;2023-09-08T21:36:57;101389.72;;;28.96;47.19
80504;BME280;69825;51.190;6.808;2023-09-08T21:39:22;101395.28;;;28.96;47.57
80504;BME280;69825;51.190;6.808;2023-09-08T21:41:47;101393.56;;;28.95;47.37
80504;BME280;69825;51.190;6.808;2023-09-08T21:44:13;101394.41;;;28.95;47.18
80504;BME280;69825;51.190;6.808;2023-09-08T21:46:39;101394.41;;;28.95;47.16
80504;BME280;69825;51.190;6.808;2023-09-08T21:49:04;101399.13;;;28.95;47.30
80504;BME280;69825;51.190;6.808;2023-09-08T21:51:29;101395.78;;;28.93;47.16
80504;BME280;69825;51.190;6.808;2023-09-08T21:53:55;101395.78;;;28.93;47.41
80504;BME280;69825;51.190;6.808;2023-09-08T21:56:20;101395.78;;;28.93;47.48
80504;BME280;69825;51.190;6.808;2023-09-08T21:58:46;101394.06;;;28.92;47.23
80504;BME280;69825;51.190;6.808;2023-09-08T22:01:11;101393.22;;;28.91;47.25
80504;BME280;69825;51.190;6.808;2023-09-08T22:03:36;101394.06;;;28.92;47.47
80504;BME280;69825;51.190;6.808;2023-09-08T22:06:02;101399.63;;;28.92;47.52
80504;BME280;69825;51.190;6.808;2023-09-08T22:08:28;101389.59;;;28.91;46.88
80504;BME280;69825;51.190;6.808;2023-09-08T22:10:53;101392.38;;;28.91;47.52
80504;BME280;69825;51.190;6.808;2023-09-08T22:13:18;101396.84;;;28.92;47.48
80504;BME280;69825;51.190;6.808;2023-09-08T22:15:44;101391.53;;;28.90;47.63
80504;BME280;69825;51.190;6.808;2023-09-08T22:18:09;101390.69;;;28.90;47.65
80504;BME280;69825;51.190;6.808;2023-09-08T22:20:35;101392.59;;;28.89;47.49
80504;BME280;69825;51.190;6.808;2023-09-08T22:23:00;101401.78;;;28.90;47.20
80504;BME280;69825;51.190;6.808;2023-09-08T22:25:25;101394.31;;;28.90;47.58
80504;BME280;69825;51.190;6.808;2023-09-08T22:27:51;101396.22;;;28.90;47.70
80504;BME280;69825;51.190;6.808;2023-09-08T22:30:17;101396.22;;;28.90;47.51
80504;BME280;69825;51.190;6.808;2023-09-08T22:32:44;101391.75;;;28.89;47.32
80504;BME280;69825;51.190;6.808;2023-09-08T22:35:10;101373.50;;;28.81;47.44
80504;BME280;69825;51.190;6.808;2023-09-08T22:37:36;101387.28;;;28.88;47.28
80504;BME280;69825;51.190;6.808;2023-09-08T22:40:01;101392.84;;;28.88;47.51
80504;BME280;69825;51.190;6.808;2023-09-08T22:42:31;101385.34;;;28.88;47.24
80504;BME280;69825;51.190;6.808;2023-09-08T22:44:56;101386.44;;;28.87;47.74
80504;BME280;69825;51.190;6.808;2023-09-08T22:47:22;101368.19;;;28.80;47.45
80504;BME280;69825;51.190;6.808;2023-09-08T22:49:59;101383.91;;;28.86;47.53
80504;BME280;69825;51.190;6.808;2023-09-08T22:52:26;101376.03;;;28.83;47.56
80504;BME280;69825;51.190;6.808;2023-09-08T22:54:51;101386.69;;;28.86;47.22
80504;BME280;69825;51.190;6.808;2023-09-08T22:57:17;101386.44;;;28.87;47.13
80504;BME280;69825;51.190;6.808;2023-09-08T22:59:43;101385.59;;;28.87;47.29
80504;BME280;69825;51.190;6.808;2023-09-08T23:02:08;101391.13;;;28.87;47.48
80504;BME280;69825;51.190;6.808;2023-09-08T23:04:33;101384.75;;;28.86;47.33
80504;BME280;69825;51.190;6.808;2023-09-08T23:07:00;101364.31;;;28.81;47.29
80504;BME280;69825;51.190;6.808;2023-09-08T23:09:25;101383.91;;;28.86;47.29
80504;BME280;69825;51.190;6.808;2023-09-08T23:11:50;101372.81;;;28.86;47.52
80504;BME280;69825;51.190;6.808;2023-09-08T23:14:17;101370.03;;;28.86;47.48
80504;BME280;69825;51.190;6.808;2023-09-08T23:16:43;101372.81;;;28.86;47.36
80504;BME280;69825;51.190;6.808;2023-09-08T23:19:08;101372.81;;;28.86;47.40
80504;BME280;69825;51.190;6.808;2023-09-08T23:21:33;101370.88;;;28.86;47.21
80504;BME280;69825;51.190;6.808;2023-09-08T23:23:59;101373.03;;;28.84;47.46
80504;BME280;69825;51.190;6.808;2023-09-08T23:26:24;101378.34;;;28.86;47.51
80504;BME280;69825;51.190;6.808;2023-09-08T23:28:51;101371.94;;;28.85;47.59
80504;BME280;69825;51.190;6.808;2023-09-08T23:31:20;101370.25;;;28.84;47.57
80504;BME280;69825;51.190;6.808;2023-09-08T23:33:45;101368.56;;;28.83;47.24
80504;BME280;69825;51.190;6.808;2023-09-08T23:36:11;101370.50;;;28.83;47.51
80504;BME280;69825;51.190;6.808;2023-09-08T23:38:36;101373.03;;;28.84;47.18
80504;BME280;69825;51.190;6.808;2023-09-08T23:41:02;101369.41;;;28.84;47.29
80504;BME280;69825;51.190;6.808;2023-09-08T23:43:29;101369.41;;;28.84;47.44
80504;BME280;69825;51.190;6.808;2023-09-08T23:45:54;101369.41;;;28.84;47.27
80504;BME280;69825;51.190;6.808;2023-09-08T23:48:20;101373.28;;;28.83;47.60
80504;BME280;69825;51.190;6.808;2023-09-08T23:50:53;101363.72;;;28.79;47.64
80504;BME280;69825;51.190;6.808;2023-09-08T23:53:19;101369.41;;;28.84;47.65
80504;BME280;69825;51.190;6.808;2023-09-08T23:55:46;101373.28;;;28.83;47.25
80504;BME280;69825;51.190;6.808;2023-09-08T23:58:11;101364.94;;;28.83;47.33
